Time;durP1;ratioP1;P1;durP2;ratioP2;P2;SDS_P1;SDS_P2;PMS_P1;PMS_P2;Temp;Humidity;BMP_temperature;BMP_pressure;BME280_temperature;BME280_humidity;BME280_pressure;Samples;Min_cycle;Max_cycle;Signal;HPM_P1;HPM_P2
2021/07/06 00:00:55;;;;;;;27.73;24.83;;;18.00;99.90;;;;;;4911699;29;20451;-85
2021/07/06 00:03:27;;;;;;;27.67;24.67;;;18.00;99.90;;;;;;4903743;29;20214;-84
2021/07/06 00:05:56;;;;;;;26.90;24.13;;;18.10;99.90;;;;;;4907570;29;20606;-84
2021/07/06 00:08:25;;;;;;;24.57;22.03;;;18.20;99.90;;;;;;4908198;29;20259;-83
2021/07/06 00:10:53;;;;;;;26.00;23.20;;;18.20;99.90;;;;;;4908759;29;20203;-85
2021/07/06 00:13:22;;;;;;;26.10;23.47;;;18.20;99.90;;;;;;4908945;29;20237;-82
2021/07/06 00:15:51;;;;;;;24.97;22.23;;;18.30;99.90;;;;;;4918457;29;20521;-82
2021/07/06 00:18:20;;;;;;;25.23;22.70;;;18.30;99.90;;;;;;4922607;29;20199;-83
2021/07/06 00:20:50;;;;;;;25.10;22.47;;;18.20;99.90;;;;;;4925337;28;20211;-85
2021/07/06 00:23:18;;;;;;;25.67;23.20;;;18.20;99.90;;;;;;4925194;28;20306;-84
2021/07/06 00:25:47;;;;;;;23.93;21.43;;;18.20;99.90;;;;;;4922379;28;20257;-83
2021/07/06 00:28:16;;;;;;;24.87;22.37;;;18.20;99.90;;;;;;4919457;28;20207;-82
2021/07/06 00:30:45;;;;;;;23.87;21.47;;;18.20;99.90;;;;;;4911951;29;20554;-82
2021/07/06 00:33:13;;;;;;;24.07;21.50;;;18.20;99.90;;;;;;4912687;29;20219;-82
2021/07/06 00:35:42;;;;;;;24.07;21.67;;;18.20;99.90;;;;;;4913441;29;20203;-82
2021/07/06 00:38:13;;;;;;;24.27;21.83;;;18.30;99.90;;;;;;4918097;29;21005;-82
2021/07/06 00:40:42;;;;;;;23.80;21.50;;;18.20;99.90;;;;;;4917116;29;20211;-84
2021/07/06 00:43:11;;;;;;;23.00;20.77;;;18.20;99.90;;;;;;4919667;29;20210;-82
2021/07/06 00:45:39;;;;;;;22.93;20.70;;;18.20;99.90;;;;;;4917357;29;20586;-83
2021/07/06 00:48:08;;;;;;;23.17;20.80;;;18.20;99.90;;;;;;4920907;29;20198;-81
2021/07/06 00:50:37;;;;;;;21.93;19.83;;;18.20;99.90;;;;;;4925003;29;20207;-84
2021/07/06 00:53:05;;;;;;;21.90;19.80;;;18.20;99.90;;;;;;4923700;29;20306;-84
2021/07/06 00:55:36;;;;;;;21.90;19.73;;;18.20;99.90;;;;;;4920599;29;20266;-83
2021/07/06 00:58:05;;;;;;;23.70;21.40;;;18.20;99.90;;;;;;4916498;29;20207;-84
2021/07/06 01:00:33;;;;;;;23.47;20.80;;;18.20;99.90;;;;;;4907473;29;20310;-85
2021/07/06 01:03:04;;;;;;;22.10;19.80;;;18.20;99.90;;;;;;4907478;29;20241;-84
2021/07/06 01:05:33;;;;;;;21.13;19.13;;;18.20;99.90;;;;;;4906082;29;20299;-86
2021/07/06 01:08:04;;;;;;;21.40;19.10;;;18.20;99.90;;;;;;4908419;29;20531;-84
2021/07/06 01:10:35;;;;;;;22.13;19.83;;;18.10;99.90;;;;;;4902567;29;21027;-84
2021/07/06 01:13:05;;;;;;;21.67;19.27;;;18.10;99.90;;;;;;4911606;29;20325;-83
2021/07/06 01:15:34;;;;;;;21.70;19.50;;;18.20;99.90;;;;;;4909503;29;20206;-83
2021/07/06 01:18:06;;;;;;;20.63;18.53;;;18.30;99.90;;;;;;4905910;29;20205;-85
2021/07/06 01:20:36;;;;;;;20.43;18.40;;;18.40;99.90;;;;;;4910981;29;20195;-83
2021/07/06 01:23:08;;;;;;;21.27;19.30;;;18.40;99.90;;;;;;4911688;29;20237;-84
2021/07/06 01:25:37;;;;;;;20.37;18.30;;;18.50;99.90;;;;;;4913392;29;20211;-82
2021/07/06 01:28:07;;;;;;;19.60;17.60;;;18.50;99.90;;;;;;4922400;29;20199;-84
2021/07/06 01:30:37;;;;;;;20.20;18.03;;;18.50;99.90;;;;;;4919821;29;20311;-84
2021/07/06 01:33:06;;;;;;;22.83;20.40;;;18.50;99.90;;;;;;4918886;29;20299;-84
2021/07/06 01:35:36;;;;;;;21.00;18.93;;;18.50;99.90;;;;;;4909857;29;20203;-83
2021/07/06 01:38:07;;;;;;;21.80;19.70;;;18.40;99.90;;;;;;4915368;29;20213;-84
2021/07/06 01:40:36;;;;;;;21.10;19.03;;;18.40;99.90;;;;;;4910921;29;20237;-86
2021/07/06 01:43:06;;;;;;;24.67;19.57;;;18.30;99.90;;;;;;4910571;29;20235;-83
2021/07/06 01:45:35;;;;;;;20.43;18.50;;;18.30;99.90;;;;;;4906480;29;20199;-85
2021/07/06 01:48:05;;;;;;;20.17;18.27;;;18.20;99.90;;;;;;4908078;29;20338;-84
2021/07/06 01:50:36;;;;;;;21.00;18.97;;;18.10;99.90;;;;;;4905705;29;20582;-85
2021/07/06 01:53:08;;;;;;;21.90;19.70;;;18.00;99.90;;;;;;4906753;29;20267;-83
2021/07/06 01:55:39;;;;;;;22.60;20.20;;;17.90;99.90;;;;;;4906464;29;20218;-82
2021/07/06 01:58:09;;;;;;;21.30;18.93;;;17.90;99.90;;;;;;4905499;29;20215;-85
2021/07/06 02:00:40;;;;;;;21.47;19.17;;;17.80;99.90;;;;;;4902008;29;20666;-82
2021/07/06 02:03:10;;;;;;;21.63;19.33;;;17.90;99.90;;;;;;4909405;29;20733;-85
2021/07/06 02:05:41;;;;;;;21.77;19.47;;;17.90;99.90;;;;;;4903886;29;20208;-86
2021/07/06 02:08:12;;;;;;;22.07;19.77;;;18.00;99.90;;;;;;4905634;29;20642;-86
2021/07/06 02:10:44;;;;;;;21.20;19.00;;;17.90;99.90;;;;;;4904258;29;20238;-82
2021/07/06 02:13:15;;;;;;;21.70;19.47;;;18.00;99.90;;;;;;4902245;29;20326;-85
2021/07/06 02:15:44;;;;;;;21.20;19.07;;;17.90;99.90;;;;;;4905971;29;20202;-83
2021/07/06 02:18:18;;;;;;;21.70;19.57;;;17.80;99.90;;;;;;4906912;29;20211;-84
2021/07/06 02:20:48;;;;;;;20.60;18.50;;;17.80;99.90;;;;;;4906377;28;20207;-84
2021/07/06 02:23:20;;;;;;;20.33;18.33;;;17.80;99.90;;;;;;4909410;29;20214;-85
2021/07/06 02:25:50;;;;;;;20.13;18.13;;;17.80;99.90;;;;;;4908734;29;20239;-83
2021/07/06 02:28:19;;;;;;;20.00;18.03;;;17.80;99.90;;;;;;4922683;29;20206;-83
2021/07/06 02:30:48;;;;;;;22.77;17.90;;;17.90;99.90;;;;;;4909794;29;20255;-83
2021/07/06 02:33:18;;;;;;;19.67;17.73;;;17.90;99.90;;;;;;4911704;29;20266;-83
2021/07/06 02:35:47;;;;;;;19.70;17.50;;;17.90;99.90;;;;;;4906395;29;20356;-83
2021/07/06 02:38:17;;;;;;;20.23;18.17;;;17.90;99.90;;;;;;4906588;29;20262;-83
2021/07/06 02:40:46;;;;;;;20.27;18.20;;;17.90;99.90;;;;;;4910266;29;20301;-84
2021/07/06 02:43:15;;;;;;;21.30;19.10;;;17.90;99.90;;;;;;4914926;28;20242;-81
2021/07/06 02:45:45;;;;;;;19.80;17.67;;;17.90;99.90;;;;;;4910152;29;20226;-82
2021/07/06 02:48:13;;;;;;;20.20;18.10;;;17.90;99.90;;;;;;4907794;29;20500;-83
2021/07/06 02:50:43;;;;;;;20.90;18.67;;;17.90;99.90;;;;;;4919561;29;20274;-82
2021/07/06 02:53:12;;;;;;;20.87;18.67;;;17.90;99.90;;;;;;4923045;29;20207;-84
2021/07/06 02:55:43;;;;;;;19.73;17.43;;;17.80;99.90;;;;;;4911045;29;20614;-84
2021/07/06 02:58:12;;;;;;;19.50;17.47;;;17.90;99.90;;;;;;4917289;29;20199;-83
2021/07/06 03:00:41;;;;;;;20.50;18.50;;;17.80;99.90;;;;;;4908691;29;20712;-84
2021/07/06 03:03:10;;;;;;;19.87;17.83;;;17.80;99.90;;;;;;4907601;29;20214;-86
2021/07/06 03:05:39;;;;;;;19.40;17.60;;;17.80;99.90;;;;;;4917338;29;20688;-84
2021/07/06 03:08:08;;;;;;;19.20;17.30;;;17.80;99.90;;;;;;4917802;29;20314;-81
2021/07/06 03:10:39;;;;;;;21.87;19.53;;;17.80;99.90;;;;;;4916008;29;20222;-84
2021/07/06 03:13:10;;;;;;;19.40;16.43;;;17.80;99.90;;;;;;4904647;29;20210;-88
2021/07/06 03:15:39;;;;;;;20.27;18.27;;;17.90;99.90;;;;;;4909347;29;20274;-82
2021/07/06 03:18:10;;;;;;;21.60;19.40;;;17.90;99.90;;;;;;4917839;29;20202;-83
2021/07/06 03:20:40;;;;;;;24.03;20.37;;;17.90;99.90;;;;;;4923366;29;20199;-84
2021/07/06 03:23:09;;;;;;;23.23;20.67;;;17.90;99.90;;;;;;4925522;29;20786;-83
2021/07/06 03:25:37;;;;;;;22.17;20.00;;;18.00;99.90;;;;;;4920914;29;20215;-84
2021/07/06 03:28:08;;;;;;;23.27;20.90;;;18.10;99.90;;;;;;4918770;29;20720;-85
2021/07/06 03:30:46;;;;;;;21.60;19.47;;;18.20;99.90;;;;;;4910181;29;20199;-84
2021/07/06 03:33:15;;;;;;;23.43;18.90;;;18.20;99.90;;;;;;4916768;29;20203;-85
2021/07/06 03:36:01;;;;;;;24.50;21.90;;;18.30;99.90;;;;;;4909021;29;20219;-83
2021/07/06 03:38:30;;;;;;;22.53;20.23;;;18.50;99.90;;;;;;4904233;29;20266;-84
2021/07/06 03:40:59;;;;;;;22.63;20.23;;;18.60;99.90;;;;;;4906321;29;20287;-82
2021/07/06 03:43:29;;;;;;;21.97;19.73;;;18.80;99.90;;;;;;4906672;29;20199;-83
2021/07/06 03:45:58;;;;;;;23.47;20.83;;;19.00;99.90;;;;;;4907679;29;20421;-85
2021/07/06 03:48:27;;;;;;;22.30;20.03;;;19.10;99.90;;;;;;4906514;29;20207;-82
2021/07/06 03:50:55;;;;;;;21.53;19.50;;;19.30;99.90;;;;;;4901705;29;20301;-84
2021/07/06 03:53:24;;;;;;;22.43;20.23;;;19.50;99.90;;;;;;4906391;29;20248;-84
2021/07/06 03:55:52;;;;;;;21.30;19.10;;;19.70;99.20;;;;;;4901981;29;20349;-81
2021/07/06 03:58:21;;;;;;;23.50;18.43;;;19.90;98.70;;;;;;4905518;29;20649;-83
2021/07/06 04:00:51;;;;;;;20.97;18.90;;;20.10;96.10;;;;;;4906758;29;20210;-82
2021/07/06 04:03:20;;;;;;;20.57;18.47;;;20.20;95.80;;;;;;4903774;29;20800;-84
2021/07/06 04:05:49;;;;;;;19.77;17.77;;;20.40;94.90;;;;;;4906470;29;20294;-81
2021/07/06 04:08:17;;;;;;;19.97;18.03;;;20.60;95.20;;;;;;4913378;29;20207;-83
2021/07/06 04:10:46;;;;;;;19.97;18.07;;;20.60;95.00;;;;;;4929074;28;20211;-84
2021/07/06 04:13:18;;;;;;;19.57;17.40;;;20.60;94.70;;;;;;4907849;28;20649;-82
2021/07/06 04:15:46;;;;;;;20.27;18.10;;;20.60;94.20;;;;;;4900768;29;20638;-83
2021/07/06 04:18:16;;;;;;;19.67;17.73;;;20.60;94.40;;;;;;4904045;29;20211;-83
2021/07/06 04:20:45;;;;;;;20.60;17.77;;;20.60;94.30;;;;;;4905266;29;20685;-83
2021/07/06 04:23:14;;;;;;;20.17;18.10;;;20.60;93.90;;;;;;4905273;29;20204;-82
2021/07/06 04:25:43;;;;;;;20.00;18.10;;;20.60;94.10;;;;;;4910430;29;20250;-84
2021/07/06 04:28:11;;;;;;;19.50;17.57;;;20.60;94.30;;;;;;4907461;29;20532;-83
2021/07/06 04:30:40;;;;;;;18.73;17.00;;;20.70;94.50;;;;;;4920640;29;20198;-83
2021/07/06 04:33:09;;;;;;;19.33;17.30;;;20.80;94.00;;;;;;4905580;28;20283;-83
2021/07/06 04:35:40;;;;;;;22.98;17.63;;;20.80;93.50;;;;;;4905143;29;20298;-83
2021/07/06 04:38:09;;;;;;;21.40;18.40;;;20.90;92.50;;;;;;4902820;29;20203;-82
2021/07/06 04:40:39;;;;;;;19.05;17.15;;;21.00;92.30;;;;;;4901510;29;20317;-87
2021/07/06 04:43:07;;;;;;;19.08;17.23;;;21.20;91.90;;;;;;4910179;28;20218;-83
2021/07/06 04:45:38;;;;;;;18.58;16.60;;;21.30;91.90;;;;;;4903345;29;21123;-85
2021/07/06 04:48:07;;;;;;;18.33;16.42;;;21.40;91.60;;;;;;4904343;29;20215;-84
2021/07/06 04:50:37;;;;;;;17.15;15.45;;;21.60;91.50;;;;;;4902774;29;20215;-85
2021/07/06 04:53:08;;;;;;;18.38;16.45;;;21.80;91.00;;;;;;4906769;28;20207;-86
2021/07/06 04:55:37;;;;;;;17.95;16.15;;;21.90;90.80;;;;;;4902996;29;20317;-84
2021/07/06 04:58:05;;;;;;;17.95;16.05;;;22.00;90.60;;;;;;4896459;29;20221;-82
2021/07/06 05:00:36;;;;;;;18.38;16.42;;;22.10;90.00;;;;;;4908877;28;20214;-84
2021/07/06 05:03:05;;;;;;;17.15;15.20;;;22.20;90.10;;;;;;4899281;29;20302;-85
2021/07/06 05:05:38;;;;;;;18.67;16.45;;;22.30;89.60;;;;;;4901789;29;20234;-85
2021/07/06 05:08:11;;;;;;;17.05;15.13;;;22.50;90.00;;;;;;4902570;29;20262;-82
2021/07/06 05:10:40;;;;;;;16.67;15.00;;;22.60;89.50;;;;;;4916653;28;20297;-82
2021/07/06 05:13:13;;;;;;;16.38;14.85;;;22.70;89.20;;;;;;4909748;28;20756;-81
2021/07/06 05:15:42;;;;;;;15.98;14.27;;;22.90;88.80;;;;;;4909738;28;20287;-80
2021/07/06 05:18:10;;;;;;;15.77;14.18;;;22.90;87.90;;;;;;4907793;28;20315;-84
2021/07/06 05:20:39;;;;;;;14.75;13.32;;;22.90;87.50;;;;;;4903601;29;20215;-81
2021/07/06 05:23:09;;;;;;;15.52;14.13;;;23.00;87.60;;;;;;4911923;28;20227;-82
2021/07/06 05:25:38;;;;;;;14.82;13.32;;;23.10;86.10;;;;;;4913020;29;20206;-81
2021/07/06 05:28:07;;;;;;;14.63;13.25;;;23.10;85.20;;;;;;4913339;28;20207;-83
2021/07/06 05:30:35;;;;;;;15.25;13.68;;;23.10;85.50;;;;;;4922635;28;20215;-84
2021/07/06 05:33:04;;;;;;;14.77;13.23;;;23.20;85.40;;;;;;4910927;29;20346;-84
2021/07/06 05:35:33;;;;;;;14.45;13.02;;;23.30;84.70;;;;;;4913117;29;20230;-83
2021/07/06 05:38:02;;;;;;;13.55;12.25;;;23.30;84.50;;;;;;4917824;28;20195;-81
2021/07/06 05:40:38;;;;;;;14.00;12.60;;;23.40;85.00;;;;;;4905002;29;20411;-81
2021/07/06 05:43:08;;;;;;;13.63;12.23;;;23.40;84.90;;;;;;4907909;28;20206;-83
2021/07/06 05:45:36;;;;;;;13.73;12.48;;;23.50;85.00;;;;;;4912898;28;20691;-81
2021/07/06 05:48:05;;;;;;;12.90;11.75;;;23.70;84.70;;;;;;4908369;28;20210;-81
2021/07/06 05:50:34;;;;;;;12.63;11.52;;;23.80;84.40;;;;;;4910511;29;20217;-82
2021/07/06 05:53:04;;;;;;;13.13;11.80;;;24.00;84.50;;;;;;4908401;29;20222;-84
2021/07/06 05:55:34;;;;;;;12.38;11.18;;;24.10;84.40;;;;;;4915540;29;20230;-83
2021/07/06 05:58:03;;;;;;;12.85;11.30;;;24.10;84.20;;;;;;4912101;29;20218;-82
2021/07/06 06:00:31;;;;;;;13.73;11.50;;;24.00;83.70;;;;;;4911809;29;20238;-81
2021/07/06 06:03:00;;;;;;;14.55;11.05;;;24.10;83.70;;;;;;4916178;29;20225;-83
2021/07/06 06:05:29;;;;;;;12.48;10.23;;;24.30;84.00;;;;;;4903859;29;20210;-84
2021/07/06 06:07:57;;;;;;;13.02;11.85;;;24.40;83.90;;;;;;4904557;29;20227;-81
2021/07/06 06:10:25;;;;;;;12.93;11.25;;;24.50;83.40;;;;;;4898011;29;21133;-83
2021/07/06 06:12:56;;;;;;;11.07;9.98;;;24.50;83.20;;;;;;4910149;29;20210;-81
2021/07/06 06:15:24;;;;;;;11.80;10.60;;;24.60;83.10;;;;;;4894373;29;20353;-82
2021/07/06 06:17:53;;;;;;;11.57;9.95;;;24.50;82.30;;;;;;4895453;29;20218;-84
2021/07/06 06:20:23;;;;;;;12.35;10.57;;;24.50;82.90;;;;;;4901359;29;20310;-83
2021/07/06 06:22:51;;;;;;;11.35;10.15;;;24.70;82.70;;;;;;4895683;29;20214;-83
2021/07/06 06:25:20;;;;;;;11.18;9.95;;;24.70;82.70;;;;;;4899183;28;20262;-82
2021/07/06 06:27:49;;;;;;;10.52;9.63;;;24.80;82.50;;;;;;4894422;28;20215;-87
2021/07/06 06:30:21;;;;;;;10.95;9.90;;;24.90;82.60;;;;;;4892997;29;20887;-85
2021/07/06 06:32:55;;;;;;;10.48;9.48;;;24.90;82.50;;;;;;4895095;29;20229;-84
2021/07/06 06:35:24;;;;;;;10.60;9.60;;;25.00;82.40;;;;;;4887671;29;20267;-82
2021/07/06 06:37:52;;;;;;;11.90;10.70;;;25.10;82.50;;;;;;4908554;28;20506;-84
2021/07/06 06:40:22;;;;;;;11.20;10.13;;;25.20;82.50;;;;;;4895701;29;20414;-81
2021/07/06 06:42:52;;;;;;;11.13;10.02;;;25.20;82.10;;;;;;4899423;29;20286;-83
2021/07/06 06:45:22;;;;;;;10.45;9.43;;;25.30;82.20;;;;;;4904881;28;20735;-84
2021/07/06 06:47:51;;;;;;;11.52;10.35;;;25.00;82.20;;;;;;4889605;29;20932;-82
2021/07/06 06:50:19;;;;;;;11.45;10.35;;;25.10;82.40;;;;;;4904876;28;20294;-83
2021/07/06 06:52:48;;;;;;;11.77;10.63;;;25.10;82.20;;;;;;4889560;29;20745;-81
2021/07/06 06:55:16;;;;;;;13.50;11.45;;;25.10;82.40;;;;;;4887948;29;20306;-83
2021/07/06 06:57:45;;;;;;;11.25;10.25;;;25.30;81.70;;;;;;4890283;29;20230;-81
2021/07/06 07:00:14;;;;;;;10.80;9.88;;;25.30;81.40;;;;;;4884688;29;20230;-85
2021/07/06 07:02:44;;;;;;;11.95;10.02;;;25.30;81.60;;;;;;4885436;29;20757;-81
2021/07/06 07:05:14;;;;;;;11.55;10.45;;;25.20;81.80;;;;;;4893699;28;20467;-81
2021/07/06 07:07:44;;;;;;;11.20;10.30;;;25.30;81.60;;;;;;4881664;29;20210;-86
2021/07/06 07:10:19;;;;;;;12.02;10.90;;;25.30;82.10;;;;;;4890053;29;20242;-80
2021/07/06 07:12:49;;;;;;;11.48;10.40;;;25.30;81.30;;;;;;4882975;29;20329;-84
2021/07/06 07:15:18;;;;;;;11.75;10.48;;;25.40;81.50;;;;;;4895849;29;20441;-84
2021/07/06 07:17:48;;;;;;;11.10;10.15;;;25.70;81.90;;;;;;4886513;29;20285;-84
2021/07/06 07:20:17;;;;;;;10.80;9.85;;;25.80;81.30;;;;;;4889592;29;20646;-85
2021/07/06 07:22:46;;;;;;;12.90;11.57;;;25.90;81.00;;;;;;4879068;29;20310;-86
2021/07/06 07:25:15;;;;;;;10.88;9.77;;;25.90;81.40;;;;;;4885146;29;20475;-84
2021/07/06 07:27:44;;;;;;;10.80;9.90;;;26.00;81.70;;;;;;4882330;29;20235;-84
2021/07/06 07:30:15;;;;;;;10.95;9.95;;;26.10;81.20;;;;;;4901524;29;20207;-83
2021/07/06 07:32:44;;;;;;;10.40;9.30;;;26.20;80.90;;;;;;4881896;29;20210;-84
2021/07/06 07:35:15;;;;;;;10.75;9.65;;;26.30;81.00;;;;;;4886272;29;20213;-86
2021/07/06 07:37:45;;;;;;;10.77;9.73;;;26.30;80.60;;;;;;4884590;29;20237;-84
2021/07/06 07:40:17;;;;;;;10.73;9.68;;;26.40;80.40;;;;;;4900886;29;20213;-85
2021/07/06 07:42:48;;;;;;;10.45;9.48;;;26.50;79.90;;;;;;4909653;29;20186;-84
2021/07/06 07:45:19;;;;;;;11.07;10.07;;;26.60;80.20;;;;;;4887720;29;20230;-86
2021/07/06 07:47:51;;;;;;;11.10;10.05;;;26.80;80.00;;;;;;4887218;29;20211;-85
2021/07/06 07:50:22;;;;;;;10.63;9.68;;;26.90;80.00;;;;;;4888709;29;20211;-81
2021/07/06 07:52:54;;;;;;;10.13;9.13;;;26.90;79.60;;;;;;4900143;29;20602;-83
2021/07/06 07:55:23;;;;;;;9.50;8.65;;;26.80;79.20;;;;;;4913365;29;20209;-84
2021/07/06 07:57:51;;;;;;;9.18;8.30;;;26.80;79.50;;;;;;4913216;28;20231;-84
2021/07/06 08:00:20;;;;;;;9.85;8.85;;;26.90;79.50;;;;;;4896828;29;20216;-82
2021/07/06 08:02:49;;;;;;;9.43;8.55;;;26.90;79.00;;;;;;4900028;29;20214;-81
2021/07/06 08:05:18;;;;;;;9.40;8.50;;;27.00;79.00;;;;;;4907545;29;20328;-83
2021/07/06 08:07:49;;;;;;;9.88;8.88;;;27.00;78.80;;;;;;4912273;29;20473;-84
2021/07/06 08:10:18;;;;;;;11.10;9.25;;;27.00;78.30;;;;;;4903355;29;20677;-84
2021/07/06 08:12:47;;;;;;;9.13;8.35;;;27.00;78.70;;;;;;4901823;29;20574;-81
2021/07/06 08:15:16;;;;;;;9.73;8.93;;;27.00;78.50;;;;;;4909104;29;20226;-83
2021/07/06 08:17:46;;;;;;;10.30;9.35;;;26.90;78.00;;;;;;4906118;29;20511;-85
2021/07/06 08:20:18;;;;;;;9.90;8.98;;;27.00;78.10;;;;;;4898565;29;20456;-85
2021/07/06 08:22:51;;;;;;;9.45;8.48;;;26.90;77.90;;;;;;4904875;29;20458;-87
2021/07/06 08:25:21;;;;;;;9.73;8.93;;;27.00;78.30;;;;;;4900631;29;20758;-84
2021/07/06 08:27:50;;;;;;;9.30;8.52;;;27.10;78.30;;;;;;4896284;29;20223;-82
2021/07/06 08:30:20;;;;;;;10.15;9.10;;;27.30;78.60;;;;;;4899987;29;20637;-85
2021/07/06 08:32:48;;;;;;;11.68;9.68;;;27.50;78.20;;;;;;4907082;28;20207;-84
2021/07/06 08:35:19;;;;;;;9.77;8.80;;;27.70;77.70;;;;;;4898467;29;20215;-83
2021/07/06 08:37:50;;;;;;;10.07;9.27;;;27.70;77.60;;;;;;4888618;29;20574;-87
2021/07/06 08:40:19;;;;;;;11.00;10.00;;;27.70;77.40;;;;;;4909689;28;20202;-87
2021/07/06 08:42:49;;;;;;;10.30;9.45;;;27.50;77.60;;;;;;4911857;28;20210;-85
2021/07/06 08:45:20;;;;;;;10.60;9.68;;;27.50;78.00;;;;;;4903741;29;20433;-86
2021/07/06 08:47:53;;;;;;;11.25;9.07;;;27.50;77.50;;;;;;4911141;29;20687;-83
2021/07/06 08:50:22;;;;;;;11.05;8.90;;;27.30;76.60;;;;;;4911442;28;20301;-84
2021/07/06 08:52:54;;;;;;;10.27;9.25;;;27.10;77.30;;;;;;4912929;28;20590;-84
2021/07/06 08:55:23;;;;;;;9.88;8.90;;;27.00;77.40;;;;;;4902501;29;20206;-83
2021/07/06 08:57:53;;;;;;;10.18;9.27;;;26.90;77.60;;;;;;4896876;29;20324;-83
2021/07/06 09:00:23;;;;;;;9.07;8.20;;;27.00;77.50;;;;;;4906097;29;20441;-82
2021/07/06 09:03:00;;;;;;;9.93;8.95;;;27.10;77.80;;;;;;4897000;28;20238;-82
2021/07/06 09:05:30;;;;;;;10.63;8.98;;;27.10;77.30;;;;;;4903460;28;20411;-84
2021/07/06 09:08:01;;;;;;;9.60;8.65;;;27.20;77.50;;;;;;4908214;29;20229;-86
2021/07/06 09:10:35;;;;;;;8.48;7.68;;;27.30;77.20;;;;;;4915255;29;20648;-85
2021/07/06 09:13:19;;;;;;;8.27;7.57;;;27.40;77.10;;;;;;4905972;28;20461;-83
2021/07/06 09:15:53;;;;;;;7.00;6.40;;;27.50;77.20;;;;;;4897120;29;20210;-83
2021/07/06 09:18:23;;;;;;;6.93;6.40;;;27.60;75.40;;;;;;4893239;29;20347;-85
2021/07/06 09:21:01;;;;;;;8.32;7.28;;;27.60;75.50;;;;;;4893252;29;20210;-85
2021/07/06 09:23:37;;;;;;;7.63;7.03;;;27.60;75.10;;;;;;4895927;29;20531;-83
2021/07/06 09:26:12;;;;;;;8.98;8.10;;;27.50;74.80;;;;;;4891076;29;20690;-82
2021/07/06 09:28:43;;;;;;;9.45;8.55;;;27.10;75.00;;;;;;4900845;29;20198;-83
2021/07/06 09:31:26;;;;;;;8.98;8.18;;;27.00;76.10;;;;;;4893135;29;20209;-83
2021/07/06 09:34:04;;;;;;;9.57;8.77;;;27.10;76.20;;;;;;4913076;28;20209;-84
2021/07/06 09:36:45;;;;;;;8.70;7.90;;;27.30;76.20;;;;;;4898713;29;20465;-84
2021/07/06 09:39:19;;;;;;;8.65;7.75;;;27.30;75.30;;;;;;4890985;29;20236;-84
2021/07/06 09:41:58;;;;;;;8.98;8.07;;;27.30;75.80;;;;;;4912022;29;20733;-82
2021/07/06 09:44:30;;;;;;;8.52;7.70;;;27.20;75.10;;;;;;4915307;29;20210;-84
2021/07/06 09:47:02;;;;;;;9.77;8.90;;;27.30;75.80;;;;;;4916242;29;20327;-85
2021/07/06 09:49:34;;;;;;;9.50;8.32;;;27.30;75.10;;;;;;4899140;29;20753;-85
2021/07/06 09:52:12;;;;;;;8.40;7.60;;;27.30;75.30;;;;;;4919281;29;20816;-85
2021/07/06 09:54:45;;;;;;;9.73;8.45;;;27.40;75.80;;;;;;4918138;29;20263;-84
2021/07/06 09:57:27;;;;;;;9.00;8.30;;;27.50;75.70;;;;;;4901016;29;20210;-83
2021/07/06 09:59:58;;;;;;;9.43;8.52;;;27.70;75.80;;;;;;4904224;29;20445;-83
2021/07/06 10:02:30;;;;;;;8.63;7.82;;;28.00;75.20;;;;;;4913801;29;20496;-83
2021/07/06 10:05:03;;;;;;;8.90;8.20;;;28.10;76.00;;;;;;4902494;29;20209;-84
2021/07/06 10:07:35;;;;;;;10.50;8.77;;;28.20;74.60;;;;;;4900425;29;20235;-81
2021/07/06 10:10:09;;;;;;;9.88;8.43;;;28.00;74.50;;;;;;4896076;29;20225;-85
2021/07/06 10:12:39;;;;;;;9.43;8.57;;;27.90;74.50;;;;;;4902555;29;20273;-87
2021/07/06 10:15:10;;;;;;;9.50;8.68;;;27.90;74.20;;;;;;4900139;29;20206;-83
2021/07/06 10:17:50;;;;;;;9.15;8.00;;;28.00;74.80;;;;;;4893558;29;20783;-83
2021/07/06 10:20:21;;;;;;;8.38;7.68;;;28.10;74.40;;;;;;4899001;29;20203;-85
2021/07/06 10:22:55;;;;;;;9.60;8.77;;;28.20;74.80;;;;;;4915025;28;20204;-83
2021/07/06 10:25:29;;;;;;;10.38;8.30;;;28.20;74.30;;;;;;4917573;28;20226;-84
2021/07/06 10:28:02;;;;;;;9.63;8.88;;;28.10;74.40;;;;;;4921784;28;20194;-85
2021/07/06 10:30:41;;;;;;;9.27;8.48;;;28.10;74.50;;;;;;4906565;28;20507;-84
2021/07/06 10:33:14;;;;;;;9.07;8.27;;;28.10;74.20;;;;;;4902229;29;20507;-84
2021/07/06 10:35:50;;;;;;;8.60;7.72;;;28.00;74.50;;;;;;4898942;29;20750;-84
2021/07/06 10:38:41;;;;;;;8.82;8.02;;;27.70;73.40;;;;;;4897340;29;20221;-81
2021/07/06 10:41:21;;;;;;;8.88;8.07;;;27.50;74.10;;;;;;4907193;29;20207;-86
2021/07/06 10:43:59;;;;;;;9.02;8.05;;;27.40;74.50;;;;;;4909292;29;20210;-83
2021/07/06 10:46:46;;;;;;;8.70;8.00;;;27.50;74.60;;;;;;4912441;29;20207;-84
2021/07/06 10:49:28;;;;;;;6.85;6.32;;;27.60;74.00;;;;;;4898489;29;20253;-85
2021/07/06 10:52:01;;;;;;;7.80;7.10;;;27.70;73.70;;;;;;4905809;29;20301;-82
2021/07/06 10:54:41;;;;;;;8.18;7.28;;;27.90;74.10;;;;;;4896899;29;20275;-82
2021/07/06 10:57:24;;;;;;;7.70;7.00;;;28.10;73.60;;;;;;4902039;29;20594;-83
2021/07/06 10:59:58;;;;;;;6.18;5.50;;;28.10;72.80;;;;;;4904178;29;20738;-84
2021/07/06 11:02:29;;;;;;;8.00;6.05;;;28.00;72.30;;;;;;4893552;29;20211;-84
2021/07/06 11:05:11;;;;;;;6.32;5.72;;;27.90;72.80;;;;;;4895195;29;20457;-82
2021/07/06 11:07:57;;;;;;;6.80;6.30;;;27.90;72.90;;;;;;4898319;29;20213;-82
2021/07/06 11:10:43;;;;;;;5.85;5.45;;;27.80;72.30;;;;;;4885486;29;20211;-83
2021/07/06 11:13:27;;;;;;;6.13;5.63;;;27.80;72.20;;;;;;4898413;29;20207;-83
2021/07/06 11:16:00;;;;;;;6.43;5.90;;;27.90;72.10;;;;;;4886772;29;20464;-82
2021/07/06 11:18:40;;;;;;;6.68;5.95;;;27.90;72.10;;;;;;4885819;29;20313;-85
2021/07/06 11:21:31;;;;;;;6.22;5.68;;;27.90;72.10;;;;;;4910128;29;20419;-84
2021/07/06 11:24:15;;;;;;;6.38;5.78;;;27.90;72.40;;;;;;4903529;29;20219;-84
2021/07/06 11:26:45;;;;;;;6.00;5.50;;;27.90;72.90;;;;;;4899024;29;20221;-83
2021/07/06 11:29:27;;;;;;;5.72;5.25;;;28.00;72.70;;;;;;4902225;29;20207;-83
2021/07/06 11:32:11;;;;;;;5.95;5.45;;;28.10;72.00;;;;;;4898787;29;20228;-84
2021/07/06 11:34:41;;;;;;;5.55;5.15;;;28.10;73.00;;;;;;4897966;29;20221;-83
2021/07/06 11:37:12;;;;;;;5.30;4.82;;;28.40;71.50;;;;;;4895259;29;20217;-86
2021/07/06 11:39:41;;;;;;;5.40;4.95;;;28.50;71.50;;;;;;4887121;29;20237;-86
2021/07/06 11:42:10;;;;;;;5.30;4.82;;;28.70;71.30;;;;;;4898071;28;20716;-84
2021/07/06 11:44:47;;;;;;;5.03;4.68;;;28.80;70.50;;;;;;4894827;29;20612;-83
2021/07/06 11:47:18;;;;;;;5.07;4.70;;;28.70;70.50;;;;;;4904551;29;20333;-85
2021/07/06 11:49:47;;;;;;;4.70;4.40;;;28.80;70.50;;;;;;4912462;28;20199;-83
2021/07/06 11:52:15;;;;;;;4.60;4.30;;;28.70;68.70;;;;;;4904277;29;20214;-84
2021/07/06 11:54:45;;;;;;;4.60;4.22;;;28.60;68.90;;;;;;4911267;29;20557;-83
2021/07/06 11:57:14;;;;;;;6.15;4.72;;;28.80;68.90;;;;;;4917338;28;20233;-84
2021/07/06 11:59:44;;;;;;;5.18;4.70;;;28.90;69.40;;;;;;4894308;29;20234;-82
2021/07/06 12:02:15;;;;;;;4.35;4.05;;;29.20;68.50;;;;;;4900941;29;20202;-85
2021/07/06 12:04:47;;;;;;;4.90;4.00;;;29.20;67.40;;;;;;4898884;29;20206;-86
2021/07/06 12:07:15;;;;;;;4.07;3.78;;;29.20;67.00;;;;;;4896822;29;20775;-84
2021/07/06 12:09:44;;;;;;;4.07;3.78;;;29.30;67.00;;;;;;4894383;28;20749;-86
2021/07/06 12:12:15;;;;;;;4.60;4.20;;;29.40;66.30;;;;;;4904936;29;20626;-85
2021/07/06 12:14:47;;;;;;;4.47;4.18;;;29.40;66.20;;;;;;4896954;29;20376;-84
2021/07/06 12:17:34;;;;;;;4.50;4.15;;;29.30;65.80;;;;;;4892662;29;20512;-84
2021/07/06 12:20:16;;;;;;;4.70;4.40;;;29.40;66.40;;;;;;4892273;29;20258;-85
2021/07/06 12:22:45;;;;;;;4.65;4.25;;;29.60;66.30;;;;;;4898050;29;20435;-85
2021/07/06 12:25:15;;;;;;;4.45;4.15;;;29.60;66.30;;;;;;4908619;29;20214;-83
2021/07/06 12:27:44;;;;;;;4.70;4.40;;;29.60;65.90;;;;;;4901695;29;20211;-82
2021/07/06 12:30:16;;;;;;;4.97;4.57;;;29.40;66.00;;;;;;4920716;29;20199;-87
2021/07/06 12:32:44;;;;;;;4.80;4.40;;;29.40;65.70;;;;;;4892882;29;20672;-86
2021/07/06 12:35:18;;;;;;;4.72;4.43;;;29.30;65.60;;;;;;4895271;29;20215;-84
2021/07/06 12:37:48;;;;;;;4.80;4.45;;;29.20;66.40;;;;;;4880824;29;20212;-82
2021/07/06 12:40:18;;;;;;;4.68;4.22;;;29.40;66.70;;;;;;4893613;29;20429;-84
2021/07/06 12:42:46;;;;;;;5.07;4.55;;;29.60;66.10;;;;;;4887497;29;20211;-83
2021/07/06 12:45:16;;;;;;;4.90;4.50;;;29.50;65.50;;;;;;4892015;29;20210;-82
2021/07/06 12:47:45;;;;;;;4.72;4.32;;;29.40;65.20;;;;;;4899325;29;20206;-84
2021/07/06 12:50:16;;;;;;;4.63;4.20;;;29.40;64.70;;;;;;4921087;28;20214;-83
2021/07/06 12:52:47;;;;;;;4.10;3.90;;;29.20;65.40;;;;;;4891176;28;20214;-82
2021/07/06 12:55:17;;;;;;;4.88;4.15;;;29.60;64.70;;;;;;4897017;29;20292;-84